sensor_id;sensor_type;location;lat;lon;timestamp;pressure;altitude;pressure_sealevel;temperature;humidity
42761;BME280;31672;47.638;19.026;2022-12-10T00:03:49;98475.41;;;4.30;100.00
42761;BME280;31672;47.638;19.026;2022-12-10T00:08:52;98479.84;;;4.30;100.00
42761;BME280;31672;47.638;19.026;2022-12-10T00:13:57;98476.38;;;4.29;100.00
42761;BME280;31672;47.638;19.026;2022-12-10T00:19:01;98484.28;;;4.29;100.00
42761;BME280;31672;47.638;19.026;2022-12-10T00:24:05;98488.72;;;4.29;100.00
42761;BME280;31672;47.638;19.026;2022-12-10T00:29:11;98504.50;;;4.29;100.00
42761;BME280;31672;47.638;19.026;2022-12-10T00:34:14;98507.78;;;4.31;100.00
42761;BME280;31672;47.638;19.026;2022-12-10T00:39:20;98504.19;;;4.32;100.00
42761;BME280;31672;47.638;19.026;2022-12-10T00:44:23;98516.16;;;4.35;100.00
42761;BME280;31672;47.638;19.026;2022-12-10T00:49:26;98521.22;;;4.36;100.00
42761;BME280;31672;47.638;19.026;2022-12-10T00:54:29;98517.28;;;4.40;100.00
42761;BME280;31672;47.638;19.026;2022-12-10T00:59:32;98524.19;;;4.41;100.00
42761;BME280;31672;47.638;19.026;2022-12-10T01:04:34;98525.00;;;4.42;100.00
42761;BME280;31672;47.638;19.026;2022-12-10T01:09:37;98518.91;;;4.41;100.00
42761;BME280;31672;47.638;19.026;2022-12-10T01:14:41;98507.41;;;4.42;100.00
42761;BME280;31672;47.638;19.026;2022-12-10T01:19:44;98521.38;;;4.43;100.00
42761;BME280;31672;47.638;19.026;2022-12-10T01:24:46;98515.66;;;4.39;100.00
42761;BME280;31672;47.638;19.026;2022-12-10T01:29:49;98523.69;;;4.38;100.00
42761;BME280;31672;47.638;19.026;2022-12-10T01:34:52;98515.97;;;4.36;100.00
42761;BME280;31672;47.638;19.026;2022-12-10T01:39:55;98523.22;;;4.34;100.00
42761;BME280;31672;47.638;19.026;2022-12-10T01:45:05;98522.91;;;4.29;100.00
42761;BME280;31672;47.638;19.026;2022-12-10T01:50:08;98534.88;;;4.32;100.00
42761;BME280;31672;47.638;19.026;2022-12-10T02:07:18;98531.75;;;4.44;100.00
42761;BME280;31672;47.638;19.026;2022-12-10T02:12:47;98547.53;;;4.44;100.00
42761;BME280;31672;47.638;19.026;2022-12-10T02:18:07;98561.34;;;4.38;100.00
42761;BME280;31672;47.638;19.026;2022-12-10T02:28:42;98568.03;;;4.49;100.00
42761;BME280;31672;47.638;19.026;2022-12-10T02:33:55;98565.41;;;4.57;100.00
42761;BME280;31672;47.638;19.026;2022-12-10T02:39:02;98550.44;;;4.57;100.00
42761;BME280;31672;47.638;19.026;2022-12-10T02:44:11;98549.94;;;4.54;100.00
42761;BME280;31672;47.638;19.026;2022-12-10T02:49:16;98564.75;;;4.55;100.00
42761;BME280;31672;47.638;19.026;2022-12-10T02:54:40;98558.84;;;4.53;100.00
42761;BME280;31672;47.638;19.026;2022-12-10T03:00:06;98567.22;;;4.48;100.00
42761;BME280;31672;47.638;19.026;2022-12-10T03:05:51;98557.72;;;4.39;100.00
42761;BME280;31672;47.638;19.026;2022-12-10T03:11:07;98577.13;;;4.30;100.00
42761;BME280;31672;47.638;19.026;2022-12-10T03:16:13;98567.13;;;4.17;100.00
42761;BME280;31672;47.638;19.026;2022-12-10T03:21:18;98577.16;;;4.06;100.00
42761;BME280;31672;47.638;19.026;2022-12-10T03:26:22;98583.09;;;3.99;100.00
42761;BME280;31672;47.638;19.026;2022-12-10T03:31:26;98607.56;;;4.00;100.00
42761;BME280;31672;47.638;19.026;2022-12-10T03:36:30;98605.09;;;3.98;100.00
42761;BME280;31672;47.638;19.026;2022-12-10T03:41:34;98591.78;;;4.00;100.00
42761;BME280;31672;47.638;19.026;2022-12-10T03:46:37;98595.25;;;4.00;100.00
42761;BME280;31672;47.638;19.026;2022-12-10T03:51:40;98594.41;;;4.00;100.00
42761;BME280;31672;47.638;19.026;2022-12-10T03:56:43;98624.00;;;4.02;100.00
42761;BME280;31672;47.638;19.026;2022-12-10T04:01:46;98610.00;;;4.01;100.00
42761;BME280;31672;47.638;19.026;2022-12-10T04:06:49;98601.16;;;4.02;100.00
42761;BME280;31672;47.638;19.026;2022-12-10T04:11:56;98603.81;;;4.02;100.00
42761;BME280;31672;47.638;19.026;2022-12-10T04:17:00;98600.03;;;3.97;100.00
42761;BME280;31672;47.638;19.026;2022-12-10T04:22:03;98599.88;;;3.90;100.00
42761;BME280;31672;47.638;19.026;2022-12-10T04:27:37;98593.59;;;3.83;100.00
42761;BME280;31672;47.638;19.026;2022-12-10T04:32:40;98603.63;;;3.80;100.00
42761;BME280;31672;47.638;19.026;2022-12-10T04:37:43;98613.63;;;3.76;100.00
42761;BME280;31672;47.638;19.026;2022-12-10T04:42:46;98623.50;;;3.74;100.00
42761;BME280;31672;47.638;19.026;2022-12-10T04:47:49;98617.41;;;3.73;100.00
42761;BME280;31672;47.638;19.026;2022-12-10T04:52:52;98623.66;;;3.72;100.00
42761;BME280;31672;47.638;19.026;2022-12-10T04:57:55;98620.22;;;3.72;100.00
42761;BME280;31672;47.638;19.026;2022-12-10T05:02:58;98629.72;;;3.73;100.00
42761;BME280;31672;47.638;19.026;2022-12-10T05:08:01;98624.47;;;3.73;100.00
42761;BME280;31672;47.638;19.026;2022-12-10T05:13:04;98633.34;;;3.72;100.00
42761;BME280;31672;47.638;19.026;2022-12-10T05:18:07;98634.16;;;3.72;100.00
42761;BME280;31672;47.638;19.026;2022-12-10T05:23:10;98640.91;;;3.75;100.00
42761;BME280;31672;47.638;19.026;2022-12-10T05:28:40;98645.97;;;3.76;100.00
42761;BME280;31672;47.638;19.026;2022-12-10T05:33:44;98641.22;;;3.80;100.00
42761;BME280;31672;47.638;19.026;2022-12-10T05:38:48;98648.47;;;3.78;100.00
42761;BME280;31672;47.638;19.026;2022-12-10T05:43:54;98663.88;;;3.73;100.00
42761;BME280;31672;47.638;19.026;2022-12-10T05:48:59;98660.75;;;3.69;100.00
42761;BME280;31672;47.638;19.026;2022-12-10T05:54:04;98661.91;;;3.67;100.00
42761;BME280;31672;47.638;19.026;2022-12-10T05:59:09;98658.94;;;3.62;100.00
42761;BME280;31672;47.638;19.026;2022-12-10T06:04:18;98655.44;;;3.53;100.00
42761;BME280;31672;47.638;19.026;2022-12-10T06:09:21;98668.28;;;3.48;100.00
42761;BME280;31672;47.638;19.026;2022-12-10T06:14:24;98668.06;;;3.41;100.00
42761;BME280;31672;47.638;19.026;2022-12-10T06:19:28;98677.41;;;3.36;100.00
42761;BME280;31672;47.638;19.026;2022-12-10T06:24:31;98683.28;;;3.30;100.00
42761;BME280;31672;47.638;19.026;2022-12-10T06:29:34;98685.41;;;3.26;100.00
42761;BME280;31672;47.638;19.026;2022-12-10T06:34:37;98702.28;;;3.23;100.00
42761;BME280;31672;47.638;19.026;2022-12-10T06:39:44;98709.34;;;3.23;100.00
42761;BME280;31672;47.638;19.026;2022-12-10T06:44:47;98710.66;;;3.19;100.00
42761;BME280;31672;47.638;19.026;2022-12-10T06:49:50;98732.47;;;3.19;100.00
42761;BME280;31672;47.638;19.026;2022-12-10T06:54:53;98721.47;;;3.16;100.00
42761;BME280;31672;47.638;19.026;2022-12-10T06:59:57;98709.31;;;3.15;100.00
42761;BME280;31672;47.638;19.026;2022-12-10T07:05:00;98687.50;;;3.14;100.00
42761;BME280;31672;47.638;19.026;2022-12-10T07:10:05;98693.88;;;3.12;100.00
42761;BME280;31672;47.638;19.026;2022-12-10T07:15:09;98704.69;;;3.09;100.00
42761;BME280;31672;47.638;19.026;2022-12-10T07:20:12;98704.03;;;3.07;100.00
42761;BME280;31672;47.638;19.026;2022-12-10T07:25:15;98710.94;;;3.08;100.00
42761;BME280;31672;47.638;19.026;2022-12-10T07:30:18;98710.47;;;3.12;100.00
42761;BME280;31672;47.638;19.026;2022-12-10T07:35:21;98691.47;;;3.18;100.00
42761;BME280;31672;47.638;19.026;2022-12-10T07:40:24;98664.25;;;3.28;100.00
42761;BME280;31672;47.638;19.026;2022-12-10T07:45:27;98674.63;;;3.37;100.00
42761;BME280;31672;47.638;19.026;2022-12-10T07:50:30;98686.13;;;3.44;100.00
42761;BME280;31672;47.638;19.026;2022-12-10T07:55:33;98697.81;;;3.50;100.00
42761;BME280;31672;47.638;19.026;2022-12-10T08:00:36;98698.97;;;3.56;100.00
42761;BME280;31672;47.638;19.026;2022-12-10T08:05:41;98700.31;;;3.68;100.00
42761;BME280;31672;47.638;19.026;2022-12-10T08:10:44;98699.69;;;3.82;100.00
42761;BME280;31672;47.638;19.026;2022-12-10T08:15:46;98691.19;;;4.13;100.00
42761;BME280;31672;47.638;19.026;2022-12-10T08:20:50;98679.00;;;4.69;100.00
42761;BME280;31672;47.638;19.026;2022-12-10T08:25:53;98665.28;;;5.37;100.00
42761;BME280;31672;47.638;19.026;2022-12-10T08:30:55;98676.94;;;5.74;100.00
42761;BME280;31672;47.638;19.026;2022-12-10T08:35:59;98690.94;;;5.74;100.00
42761;BME280;31672;47.638;19.026;2022-12-10T08:41:08;98683.69;;;5.45;100.00
42761;BME280;31672;47.638;19.026;2022-12-10T08:46:13;98687.22;;;5.29;100.00
42761;BME280;31672;47.638;19.026;2022-12-10T08:51:19;98677.88;;;5.19;100.00
42761;BME280;31672;47.638;19.026;2022-12-10T08:56:22;98691.91;;;5.11;100.00
42761;BME280;31672;47.638;19.026;2022-12-10T09:01:24;98703.44;;;5.10;100.00
42761;BME280;31672;47.638;19.026;2022-12-10T09:06:28;98719.19;;;5.18;100.00
42761;BME280;31672;47.638;19.026;2022-12-10T09:11:33;98703.72;;;5.23;100.00
42761;BME280;31672;47.638;19.026;2022-12-10T09:16:36;98695.59;;;5.33;100.00
42761;BME280;31672;47.638;19.026;2022-12-10T09:21:42;98702.81;;;5.39;100.00
42761;BME280;31672;47.638;19.026;2022-12-10T09:26:45;98720.97;;;5.34;100.00
42761;BME280;31672;47.638;19.026;2022-12-10T09:31:51;98707.16;;;5.16;100.00
42761;BME280;31672;47.638;19.026;2022-12-10T09:36:54;98705.09;;;4.95;100.00
42761;BME280;31672;47.638;19.026;2022-12-10T09:42:33;98704.31;;;4.78;100.00
42761;BME280;31672;47.638;19.026;2022-12-10T09:53:00;98701.72;;;4.53;100.00
42761;BME280;31672;47.638;19.026;2022-12-10T09:58:06;98695.13;;;4.49;100.00
42761;BME280;31672;47.638;19.026;2022-12-10T10:03:14;98681.16;;;4.41;100.00
42761;BME280;31672;47.638;19.026;2022-12-10T10:08:27;98670.16;;;4.37;100.00
42761;BME280;31672;47.638;19.026;2022-12-10T10:13:46;98646.97;;;4.24;100.00
42761;BME280;31672;47.638;19.026;2022-12-10T10:19:33;98645.53;;;4.22;100.00
42761;BME280;31672;47.638;19.026;2022-12-10T10:24:35;98649.28;;;4.27;100.00
42761;BME280;31672;47.638;19.026;2022-12-10T10:29:39;98647.13;;;4.31;100.00
42761;BME280;31672;47.638;19.026;2022-12-10T10:34:43;98655.34;;;4.36;100.00
42761;BME280;31672;47.638;19.026;2022-12-10T10:39:49;98656.84;;;4.39;100.00
42761;BME280;31672;47.638;19.026;2022-12-10T10:44:52;98656.03;;;4.38;100.00
42761;BME280;31672;47.638;19.026;2022-12-10T10:49:55;98652.06;;;4.42;100.00
42761;BME280;31672;47.638;19.026;2022-12-10T10:54:59;98655.19;;;4.46;100.00
42761;BME280;31672;47.638;19.026;2022-12-10T11:00:16;98658.28;;;4.49;100.00
42761;BME280;31672;47.638;19.026;2022-12-10T11:05:25;98651.56;;;4.55;100.00
42761;BME280;31672;47.638;19.026;2022-12-10T11:10:36;98654.03;;;4.56;100.00
42761;BME280;31672;47.638;19.026;2022-12-10T11:15:41;98654.69;;;4.59;100.00
42761;BME280;31672;47.638;19.026;2022-12-10T11:21:02;98654.50;;;4.60;100.00
42761;BME280;31672;47.638;19.026;2022-12-10T11:37:01;98621.94;;;4.61;100.00
42761;BME280;31672;47.638;19.026;2022-12-10T11:47:46;98598.13;;;4.54;100.00
42761;BME280;31672;47.638;19.026;2022-12-10T11:52:56;98601.28;;;4.42;100.00
42761;BME280;31672;47.638;19.026;2022-12-10T11:58:31;98585.03;;;4.30;100.00
42761;BME280;31672;47.638;19.026;2022-12-10T12:04:12;98583.72;;;4.18;100.00
42761;BME280;31672;47.638;19.026;2022-12-10T12:10:07;98568.78;;;4.10;100.00
42761;BME280;31672;47.638;19.026;2022-12-10T12:20:45;98566.66;;;3.97;100.00
42761;BME280;31672;47.638;19.026;2022-12-10T12:26:03;98555.84;;;3.92;100.00
42761;BME280;31672;47.638;19.026;2022-12-10T12:31:14;98557.13;;;3.88;100.00
42761;BME280;31672;47.638;19.026;2022-12-10T12:36:27;98556.66;;;3.85;100.00
42761;BME280;31672;47.638;19.026;2022-12-10T12:52:57;98558.94;;;3.63;100.00
42761;BME280;31672;47.638;19.026;2022-12-10T13:03:43;98569.94;;;3.51;100.00
42761;BME280;31672;47.638;19.026;2022-12-10T13:14:29;98570.91;;;3.41;100.00
42761;BME280;31672;47.638;19.026;2022-12-10T13:19:33;98581.09;;;3.36;100.00
42761;BME280;31672;47.638;19.026;2022-12-10T13:57:22;98568.56;;;3.22;100.00
42761;BME280;31672;47.638;19.026;2022-12-10T14:08:23;98554.97;;;3.27;100.00
42761;BME280;31672;47.638;19.026;2022-12-10T14:13:54;98551.53;;;3.26;100.00
42761;BME280;31672;47.638;19.026;2022-12-10T14:19:05;98562.19;;;3.25;100.00
42761;BME280;31672;47.638;19.026;2022-12-10T14:24:34;98556.28;;;3.22;100.00
42761;BME280;31672;47.638;19.026;2022-12-10T14:29:37;98559.22;;;3.19;100.00
42761;BME280;31672;47.638;19.026;2022-12-10T14:34:59;98562.69;;;3.20;100.00
42761;BME280;31672;47.638;19.026;2022-12-10T14:40:05;98553.47;;;3.16;100.00
42761;BME280;31672;47.638;19.026;2022-12-10T14:45:15;98550.19;;;3.14;100.00
42761;BME280;31672;47.638;19.026;2022-12-10T14:50:18;98557.38;;;3.12;100.00
42761;BME280;31672;47.638;19.026;2022-12-10T14:55:23;98550.66;;;3.09;100.00
42761;BME280;31672;47.638;19.026;2022-12-10T15:00:27;98560.34;;;3.09;100.00
42761;BME280;31672;47.638;19.026;2022-12-10T15:05:31;98545.75;;;3.06;100.00
42761;BME280;31672;47.638;19.026;2022-12-10T15:10:44;98545.88;;;3.05;100.00
42761;BME280;31672;47.638;19.026;2022-12-10T15:15:51;98548.50;;;3.05;100.00
42761;BME280;31672;47.638;19.026;2022-12-10T15:21:18;98537.03;;;3.06;100.00
42761;BME280;31672;47.638;19.026;2022-12-10T15:26:28;98539.50;;;3.07;100.00
42761;BME280;31672;47.638;19.026;2022-12-10T15:31:31;98532.28;;;3.09;100.00
42761;BME280;31672;47.638;19.026;2022-12-10T15:47:17;98507.38;;;3.13;100.00
42761;BME280;31672;47.638;19.026;2022-12-10T15:52:26;98518.34;;;3.17;100.00
42761;BME280;31672;47.638;19.026;2022-12-10T15:57:36;98512.81;;;3.20;100.00
42761;BME280;31672;47.638;19.026;2022-12-10T16:02:46;98507.22;;;3.23;100.00
42761;BME280;31672;47.638;19.026;2022-12-10T16:07:53;98500.00;;;3.25;100.00
42761;BME280;31672;47.638;19.026;2022-12-10T16:13:04;98490.97;;;3.28;100.00
42761;BME280;31672;47.638;19.026;2022-12-10T16:18:10;98487.88;;;3.32;100.00
42761;BME280;31672;47.638;19.026;2022-12-10T16:23:13;98484.25;;;3.33;100.00
42761;BME280;31672;47.638;19.026;2022-12-10T16:28:20;98469.31;;;3.34;100.00
42761;BME280;31672;47.638;19.026;2022-12-10T16:33:26;98469.81;;;3.37;100.00
42761;BME280;31672;47.638;19.026;2022-12-10T16:38:29;98460.78;;;3.40;100.00
42761;BME280;31672;47.638;19.026;2022-12-10T16:43:32;98448.66;;;3.39;100.00
42761;BME280;31672;47.638;19.026;2022-12-10T16:48:35;98449.16;;;3.42;100.00
42761;BME280;31672;47.638;19.026;2022-12-10T16:53:38;98455.88;;;3.45;100.00
42761;BME280;31672;47.638;19.026;2022-12-10T16:58:43;98453.06;;;3.46;100.00
42761;BME280;31672;47.638;19.026;2022-12-10T17:03:47;98443.25;;;3.48;100.00
42761;BME280;31672;47.638;19.026;2022-12-10T17:08:51;98426.50;;;3.49;100.00
42761;BME280;31672;47.638;19.026;2022-12-10T17:13:54;98425.31;;;3.52;100.00
42761;BME280;31672;47.638;19.026;2022-12-10T17:18:57;98425.16;;;3.54;100.00
42761;BME280;31672;47.638;19.026;2022-12-10T17:24:00;98426.81;;;3.55;100.00
42761;BME280;31672;47.638;19.026;2022-12-10T17:29:24;98418.94;;;3.55;100.00
42761;BME280;31672;47.638;19.026;2022-12-10T17:34:28;98407.44;;;3.56;100.00
42761;BME280;31672;47.638;19.026;2022-12-10T17:39:32;98396.94;;;3.56;100.00
42761;BME280;31672;47.638;19.026;2022-12-10T17:44:36;98397.75;;;3.56;100.00
42761;BME280;31672;47.638;19.026;2022-12-10T17:49:39;98386.44;;;3.56;100.00
42761;BME280;31672;47.638;19.026;2022-12-10T17:54:42;98383.63;;;3.57;100.00
42761;BME280;31672;47.638;19.026;2022-12-10T17:59:46;98377.22;;;3.60;100.00
42761;BME280;31672;47.638;19.026;2022-12-10T18:04:49;98374.44;;;3.61;100.00
42761;BME280;31672;47.638;19.026;2022-12-10T18:09:52;98362.75;;;3.64;100.00
42761;BME280;31672;47.638;19.026;2022-12-10T18:14:55;98363.44;;;3.66;100.00
42761;BME280;31672;47.638;19.026;2022-12-10T18:19:58;98357.50;;;3.72;100.00
42761;BME280;31672;47.638;19.026;2022-12-10T18:25:01;98349.28;;;3.75;100.00
42761;BME280;31672;47.638;19.026;2022-12-10T18:30:05;98340.72;;;3.81;100.00
42761;BME280;31672;47.638;19.026;2022-12-10T18:35:09;98337.41;;;3.87;100.00
42761;BME280;31672;47.638;19.026;2022-12-10T18:40:19;98335.09;;;3.92;100.00
42761;BME280;31672;47.638;19.026;2022-12-10T18:45:23;98323.88;;;3.98;100.00
42761;BME280;31672;47.638;19.026;2022-12-10T18:50:28;98321.56;;;4.03;100.00
42761;BME280;31672;47.638;19.026;2022-12-10T18:55:31;98311.50;;;4.07;100.00
42761;BME280;31672;47.638;19.026;2022-12-10T19:00:35;98307.91;;;4.08;100.00
42761;BME280;31672;47.638;19.026;2022-12-10T19:05:38;98307.72;;;4.10;100.00
42761;BME280;31672;47.638;19.026;2022-12-10T19:10:41;98304.94;;;4.11;100.00
42761;BME280;31672;47.638;19.026;2022-12-10T19:15:44;98300.31;;;4.13;100.00
42761;BME280;31672;47.638;19.026;2022-12-10T19:20:50;98296.53;;;4.16;100.00
42761;BME280;31672;47.638;19.026;2022-12-10T19:25:59;98293.53;;;4.19;100.00
42761;BME280;31672;47.638;19.026;2022-12-10T19:31:01;98288.94;;;4.21;100.00
42761;BME280;31672;47.638;19.026;2022-12-10T19:36:24;98272.81;;;4.24;100.00
42761;BME280;31672;47.638;19.026;2022-12-10T19:41:30;98269.38;;;4.23;100.00
42761;BME280;31672;47.638;19.026;2022-12-10T19:46:33;98264.09;;;4.23;100.00
42761;BME280;31672;47.638;19.026;2022-12-10T19:51:36;98262.66;;;4.21;100.00
42761;BME280;31672;47.638;19.026;2022-12-10T19:56:40;98255.91;;;4.18;100.00
42761;BME280;31672;47.638;19.026;2022-12-10T20:01:44;98237.69;;;4.17;100.00
42761;BME280;31672;47.638;19.026;2022-12-10T20:06:48;98246.22;;;4.19;100.00
42761;BME280;31672;47.638;19.026;2022-12-10T20:11:52;98240.97;;;4.19;100.00
42761;BME280;31672;47.638;19.026;2022-12-10T20:16:55;98235.69;;;4.19;100.00
42761;BME280;31672;47.638;19.026;2022-12-10T20:21:58;98244.25;;;4.21;100.00
42761;BME280;31672;47.638;19.026;2022-12-10T20:27:01;98240.81;;;4.20;100.00
42761;BME280;31672;47.638;19.026;2022-12-10T20:32:05;98233.72;;;4.21;100.00
42761;BME280;31672;47.638;19.026;2022-12-10T20:37:09;98220.59;;;4.21;100.00
42761;BME280;31672;47.638;19.026;2022-12-10T20:42:15;98218.28;;;4.18;100.00
42761;BME280;31672;47.638;19.026;2022-12-10T20:47:17;98217.97;;;4.21;100.00
42761;BME280;31672;47.638;19.026;2022-12-10T20:52:20;98214.66;;;4.19;100.00
42761;BME280;31672;47.638;19.026;2022-12-10T20:57:23;98216.47;;;4.18;100.00
42761;BME280;31672;47.638;19.026;2022-12-10T21:02:26;98198.91;;;4.19;100.00
42761;BME280;31672;47.638;19.026;2022-12-10T21:07:30;98199.56;;;4.21;100.00
42761;BME280;31672;47.638;19.026;2022-12-10T21:12:33;98193.63;;;4.19;100.00
42761;BME280;31672;47.638;19.026;2022-12-10T21:17:36;98184.94;;;4.18;100.00
42761;BME280;31672;47.638;19.026;2022-12-10T21:22:39;98191.66;;;4.21;100.00
42761;BME280;31672;47.638;19.026;2022-12-10T21:27:42;98194.44;;;4.19;100.00
42761;BME280;31672;47.638;19.026;2022-12-10T21:32:46;98191.00;;;4.19;100.00
42761;BME280;31672;47.638;19.026;2022-12-10T21:37:50;98180.69;;;4.17;100.00
42761;BME280;31672;47.638;19.026;2022-12-10T21:42:53;98186.75;;;4.18;100.00
42761;BME280;31672;47.638;19.026;2022-12-10T21:48:17;98180.84;;;4.16;100.00
42761;BME280;31672;47.638;19.026;2022-12-10T21:53:20;98171.16;;;4.16;100.00
42761;BME280;31672;47.638;19.026;2022-12-10T21:58:23;98166.53;;;4.18;100.00
42761;BME280;31672;47.638;19.026;2022-12-10T22:03:27;98150.66;;;4.12;100.00
42761;BME280;31672;47.638;19.026;2022-12-10T22:08:30;98153.81;;;4.07;100.00
42761;BME280;31672;47.638;19.026;2022-12-10T22:13:33;98152.88;;;4.00;100.00
42761;BME280;31672;47.638;19.026;2022-12-10T22:18:36;98152.94;;;3.92;100.00
42761;BME280;31672;47.638;19.026;2022-12-10T22:23:39;98141.66;;;3.83;100.00
42761;BME280;31672;47.638;19.026;2022-12-10T22:28:42;98151.25;;;3.76;100.00
42761;BME280;31672;47.638;19.026;2022-12-10T22:33:45;98159.81;;;3.70;100.00
42761;BME280;31672;47.638;19.026;2022-12-10T22:38:48;98146.75;;;3.62;100.00
42761;BME280;31672;47.638;19.026;2022-12-10T22:43:52;98146.09;;;3.60;100.00
42761;BME280;31672;47.638;19.026;2022-12-10T22:48:55;98129.06;;;3.56;100.00
42761;BME280;31672;47.638;19.026;2022-12-10T22:53:58;98128.25;;;3.55;100.00
42761;BME280;31672;47.638;19.026;2022-12-10T22:59:03;98114.81;;;3.50;100.00
42761;BME280;31672;47.638;19.026;2022-12-10T23:04:08;98107.25;;;3.47;100.00
42761;BME280;31672;47.638;19.026;2022-12-10T23:09:11;98100.56;;;3.44;100.00
42761;BME280;31672;47.638;19.026;2022-12-10T23:14:14;98073.00;;;3.40;100.00
42761;BME280;31672;47.638;19.026;2022-12-10T23:19:16;98070.91;;;3.36;100.00
42761;BME280;31672;47.638;19.026;2022-12-10T23:24:20;98057.31;;;3.32;100.00
42761;BME280;31672;47.638;19.026;2022-12-10T23:29:23;98047.81;;;3.31;100.00
42761;BME280;31672;47.638;19.026;2022-12-10T23:34:26;98043.38;;;3.32;100.00
42761;BME280;31672;47.638;19.026;2022-12-10T23:39:30;98036.31;;;3.32;100.00
42761;BME280;31672;47.638;19.026;2022-12-10T23:44:33;98036.94;;;3.34;100.00
42761;BME280;31672;47.638;19.026;2022-12-10T23:49:36;98026.28;;;3.36;100.00
42761;BME280;31672;47.638;19.026;2022-12-10T23:54:40;98013.63;;;3.39;100.00
42761;BME280;31672;47.638;19.026;2022-12-10T23:59:43;98015.91;;;3.42;100.00
